Time;durP1;ratioP1;P1;durP2;ratioP2;P2;SDS_P1;SDS_P2;PMS_P1;PMS_P2;Temp;Humidity;BMP_temperature;BMP_pressure;BME280_temperature;BME280_humidity;BME280_pressure;Samples;Min_cycle;Max_cycle;Signal;HPM_P1;HPM_P2
2021/08/30 00:01:38;;;;;;;4.78;4.35;;;18.10;85.10;;;;;;5056075;28;20287;-62
2021/08/30 00:04:04;;;;;;;4.38;3.97;;;18.10;85.10;;;;;;5040815;28;20448;-62
2021/08/30 00:06:29;;;;;;;3.53;3.22;;;18.10;85.10;;;;;;5066418;28;20030;-62
2021/08/30 00:08:55;;;;;;;4.90;4.40;;;18.10;85.10;;;;;;5056527;28;20119;-62
2021/08/30 00:11:20;;;;;;;5.28;3.92;;;18.10;85.10;;;;;;5060502;28;20054;-62
2021/08/30 00:13:46;;;;;;;5.72;4.78;;;18.00;85.10;;;;;;5064198;28;20047;-62
2021/08/30 00:16:12;;;;;;;4.90;4.40;;;18.00;85.10;;;;;;5044182;28;20047;-61
2021/08/30 00:18:38;;;;;;;7.90;5.43;;;18.00;85.10;;;;;;5058948;28;20079;-61
2021/08/30 00:21:03;;;;;;;8.00;5.03;;;18.00;85.20;;;;;;5039822;28;20071;-62
2021/08/30 00:23:29;;;;;;;9.95;5.75;;;18.00;85.30;;;;;;5026379;28;20076;-62
2021/08/30 00:25:54;;;;;;;7.63;5.45;;;18.00;85.30;;;;;;5033833;28;20099;-62
2021/08/30 00:28:20;;;;;;;8.00;5.30;;;18.00;85.30;;;;;;5049840;28;20087;-62
2021/08/30 00:30:45;;;;;;;9.38;5.32;;;18.00;85.40;;;;;;5066905;28;20036;-62
2021/08/30 00:33:11;;;;;;;6.05;5.28;;;18.00;85.30;;;;;;5068630;28;20036;-62
2021/08/30 00:35:37;;;;;;;7.70;4.75;;;18.00;85.30;;;;;;5065713;28;20040;-62
2021/08/30 00:38:04;;;;;;;6.00;4.85;;;18.00;85.40;;;;;;5046161;28;20028;-62
2021/08/30 00:40:29;;;;;;;6.65;5.35;;;18.00;85.40;;;;;;5030512;28;20136;-61
2021/08/30 00:42:55;;;;;;;7.85;4.90;;;18.00;85.40;;;;;;5064819;28;20528;-61
2021/08/30 00:45:20;;;;;;;11.48;4.88;;;18.00;85.50;;;;;;5069200;28;20097;-62
2021/08/30 00:47:46;;;;;;;15.63;5.88;;;18.00;85.50;;;;;;5050269;28;20419;-62
2021/08/30 00:50:14;;;;;;;19.92;5.47;;;17.90;85.60;;;;;;5066212;28;20067;-62
2021/08/30 00:52:40;;;;;;;13.10;5.22;;;17.90;85.50;;;;;;5047098;28;20029;-61
2021/08/30 00:55:06;;;;;;;11.98;4.65;;;18.00;85.60;;;;;;5046581;28;20043;-62
2021/08/30 00:57:32;;;;;;;8.98;5.03;;;17.90;85.60;;;;;;5046533;28;20086;-62
2021/08/30 00:59:57;;;;;;;9.25;4.88;;;17.90;85.50;;;;;;5043465;28;20037;-62
2021/08/30 01:02:23;;;;;;;9.85;4.72;;;17.90;85.60;;;;;;5045221;28;20372;-62
2021/08/30 01:04:48;;;;;;;14.80;4.45;;;17.90;85.60;;;;;;5052468;28;20032;-62
2021/08/30 01:07:19;;;;;;;12.65;4.53;;;17.90;85.70;;;;;;5030550;28;20025;-61
2021/08/30 01:09:51;;;;;;;11.13;5.07;;;17.90;85.80;;;;;;5040424;28;20024;-62
2021/08/30 01:12:21;;;;;;;6.97;4.40;;;17.90;85.90;;;;;;5055918;28;20514;-61
2021/08/30 01:14:54;;;;;;;11.20;4.90;;;17.90;85.90;;;;;;5048758;28;20051;-62
2021/08/30 01:17:20;;;;;;;9.82;5.20;;;17.90;85.90;;;;;;5049178;28;20808;-62
2021/08/30 01:20:11;;;;;;;11.80;6.00;;;17.90;86.00;;;;;;5031497;28;20034;-62
2021/08/30 01:22:42;;;;;;;10.25;5.80;;;17.90;86.00;;;;;;5049712;28;20063;-62
2021/08/30 01:25:10;;;;;;;9.48;5.40;;;17.90;86.00;;;;;;5031664;28;20118;-62
2021/08/30 01:27:35;;;;;;;12.82;5.72;;;17.90;86.00;;;;;;5048492;28;20146;-62
2021/08/30 01:30:06;;;;;;;10.93;5.50;;;17.90;86.10;;;;;;5043911;28;20182;-62
2021/08/30 01:32:31;;;;;;;8.88;5.28;;;17.80;86.10;;;;;;5065316;28;20086;-62
2021/08/30 01:34:59;;;;;;;15.50;5.63;;;17.80;86.10;;;;;;5064785;28;20029;-61
2021/08/30 01:37:25;;;;;;;12.00;6.25;;;17.80;86.10;;;;;;5039441;28;20055;-62
2021/08/30 01:39:50;;;;;;;8.43;5.28;;;17.80;86.10;;;;;;5049815;28;20035;-62
2021/08/30 01:42:16;;;;;;;12.35;5.13;;;17.80;86.20;;;;;;5046064;28;20560;-62
2021/08/30 01:44:42;;;;;;;7.70;4.32;;;17.80;86.10;;;;;;5031784;28;20163;-61
2021/08/30 01:47:07;;;;;;;8.30;4.63;;;17.80;86.10;;;;;;5048804;28;20195;-62
2021/08/30 01:49:33;;;;;;;9.90;4.30;;;17.80;86.10;;;;;;5047114;28;20040;-62
2021/08/30 01:51:58;;;;;;;7.50;4.68;;;17.80;86.10;;;;;;5032356;28;20104;-62
2021/08/30 01:54:24;;;;;;;5.95;4.47;;;17.80;86.10;;;;;;5027761;28;20059;-62
2021/08/30 01:56:52;;;;;;;8.65;4.45;;;17.80;86.10;;;;;;5045957;28;20060;-61
2021/08/30 02:02:02;;;;;;;9.43;4.45;;;17.80;86.20;;;;;;5047162;28;20134;-61
2021/08/30 02:04:28;;;;;;;7.03;4.30;;;17.80;86.20;;;;;;5047911;28;20020;-62
2021/08/30 02:06:53;;;;;;;9.70;4.28;;;17.80;86.20;;;;;;5022496;28;20052;-62
2021/08/30 02:09:19;;;;;;;6.63;3.92;;;17.80;86.30;;;;;;5067145;28;20083;-62
2021/08/30 02:11:44;;;;;;;6.80;4.07;;;17.80;86.40;;;;;;5058744;28;20499;-62
2021/08/30 02:14:10;;;;;;;7.35;4.40;;;17.80;86.60;;;;;;5026787;28;20029;-61
2021/08/30 02:16:36;;;;;;;4.97;3.67;;;17.70;86.50;;;;;;5064661;28;20493;-62
2021/08/30 02:19:38;;;;;;;4.22;3.47;;;17.80;86.60;;;;;;5034420;28;20067;-61
2021/08/30 02:22:05;;;;;;;6.93;4.03;;;17.80;86.60;;;;;;5061688;28;20056;-62
2021/08/30 02:24:50;;;;;;;8.07;4.90;;;17.80;86.50;;;;;;5031634;28;20510;-62
2021/08/30 02:27:43;;;;;;;8.10;6.15;;;17.70;86.50;;;;;;5033855;28;20062;-62
2021/08/30 02:30:14;;;;;;;4.85;4.35;;;17.80;86.60;;;;;;5045275;28;20096;-62
2021/08/30 02:32:40;;;;;;;5.85;4.70;;;17.80;86.50;;;;;;5032647;28;21294;-62
2021/08/30 02:35:06;;;;;;;5.55;4.65;;;17.70;86.50;;;;;;5029294;28;20028;-62
2021/08/30 02:37:33;;;;;;;5.63;4.45;;;17.70;86.40;;;;;;5047923;28;20032;-62
2021/08/30 02:39:59;;;;;;;8.38;5.30;;;17.70;86.40;;;;;;5048503;28;20025;-62
2021/08/30 02:42:25;;;;;;;7.38;4.43;;;17.70;86.50;;;;;;5026837;28;20030;-62
2021/08/30 02:44:50;;;;;;;5.38;4.88;;;17.70;86.50;;;;;;5044548;28;20036;-62
2021/08/30 02:47:17;;;;;;;6.95;4.32;;;17.70;86.60;;;;;;5028061;28;20405;-61
2021/08/30 02:49:43;;;;;;;6.63;4.65;;;17.70;86.70;;;;;;5029458;28;20039;-62
2021/08/30 02:52:10;;;;;;;4.57;4.18;;;17.70;86.70;;;;;;5015782;28;20096;-62
2021/08/30 02:54:35;;;;;;;4.50;3.95;;;17.60;86.70;;;;;;5031189;28;20050;-62
2021/08/30 02:57:03;;;;;;;7.55;4.60;;;17.60;86.60;;;;;;5030241;28;20166;-62
2021/08/30 02:59:29;;;;;;;4.78;4.13;;;17.60;86.70;;;;;;5066840;28;20045;-62
2021/08/30 03:01:54;;;;;;;4.70;4.20;;;17.60;86.70;;;;;;5017907;28;20146;-62
2021/08/30 03:04:20;;;;;;;4.95;4.00;;;17.60;86.80;;;;;;5032537;28;20028;-62
2021/08/30 03:06:45;;;;;;;5.97;4.35;;;17.60;86.90;;;;;;5070232;28;20483;-61
2021/08/30 03:09:11;;;;;;;4.72;4.18;;;17.50;86.90;;;;;;5044064;28;20104;-62
2021/08/30 03:11:36;;;;;;;5.68;4.30;;;17.60;87.00;;;;;;5028926;28;20040;-61
2021/08/30 03:14:02;;;;;;;4.95;3.42;;;17.50;87.00;;;;;;5035339;28;20021;-62
2021/08/30 03:16:28;;;;;;;4.72;3.70;;;17.50;87.00;;;;;;5033979;28;20055;-61
2021/08/30 03:18:53;;;;;;;5.57;3.83;;;17.50;87.10;;;;;;5032731;28;20029;-62
2021/08/30 03:21:19;;;;;;;5.28;3.47;;;17.50;87.10;;;;;;5029865;28;20401;-62
2021/08/30 03:23:44;;;;;;;46.53;7.80;;;17.50;87.20;;;;;;5020632;28;20024;-62
2021/08/30 03:26:11;;;;;;;87.78;10.90;;;17.50;87.10;;;;;;5033610;28;20044;-61
2021/08/30 03:28:37;;;;;;;59.05;7.20;;;17.50;87.10;;;;;;5032930;28;20028;-61
2021/08/30 03:31:02;;;;;;;39.08;5.82;;;17.50;87.10;;;;;;5012815;28;20707;-61
2021/08/30 03:33:28;;;;;;;31.45;5.65;;;17.50;87.00;;;;;;5012164;28;20063;-62
2021/08/30 03:35:53;;;;;;;45.15;6.70;;;17.50;87.10;;;;;;5030174;28;20048;-62
2021/08/30 03:38:20;;;;;;;25.75;6.13;;;17.50;87.10;;;;;;5048780;28;20124;-62
2021/08/30 03:40:46;;;;;;;37.15;5.95;;;17.50;87.10;;;;;;5029670;28;20048;-61
2021/08/30 03:43:11;;;;;;;29.80;6.13;;;17.50;87.10;;;;;;5048396;28;20044;-62
2021/08/30 03:45:37;;;;;;;32.38;5.70;;;17.50;87.00;;;;;;5064023;28;20068;-62
2021/08/30 03:48:03;;;;;;;35.22;6.25;;;17.50;87.00;;;;;;5068147;28;20554;-61
2021/08/30 03:50:29;;;;;;;33.55;5.38;;;17.50;87.10;;;;;;5039998;28;20526;-61
2021/08/30 03:52:54;;;;;;;30.50;6.20;;;17.50;87.00;;;;;;5032368;28;20040;-61
2021/08/30 03:55:20;;;;;;;27.65;6.22;;;17.50;87.00;;;;;;5030619;28;20059;-62
2021/08/30 03:57:45;;;;;;;21.38;4.75;;;17.50;87.00;;;;;;5044392;28;20590;-61
2021/08/30 04:00:11;;;;;;;16.65;4.15;;;17.50;86.90;;;;;;5029354;28;20349;-62
2021/08/30 04:02:39;;;;;;;33.50;5.65;;;17.50;86.90;;;;;;5048157;28;20024;-61
2021/08/30 04:05:05;;;;;;;30.90;4.93;;;17.50;87.00;;;;;;5017649;28;20338;-62
2021/08/30 04:07:32;;;;;;;23.05;4.60;;;17.50;86.90;;;;;;5043600;28;20071;-62
2021/08/30 04:09:58;;;;;;;22.75;5.00;;;17.50;86.90;;;;;;5036311;28;20028;-61
2021/08/30 04:12:23;;;;;;;27.15;5.35;;;17.50;87.00;;;;;;5021698;28;20368;-62
2021/08/30 04:14:49;;;;;;;20.05;5.32;;;17.50;87.00;;;;;;5033477;28;20123;-62
2021/08/30 04:17:15;;;;;;;18.20;5.18;;;17.50;87.00;;;;;;5052003;28;20255;-62
2021/08/30 04:19:40;;;;;;;15.50;4.40;;;17.50;87.20;;;;;;5044331;28;20111;-62
2021/08/30 04:22:06;;;;;;;28.42;4.60;;;17.50;87.30;;;;;;5043374;28;20060;-62
2021/08/30 04:24:31;;;;;;;17.75;4.60;;;17.50;87.30;;;;;;5043642;28;20119;-62
2021/08/30 04:26:57;;;;;;;17.58;4.35;;;17.50;87.30;;;;;;5064668;28;20032;-61
2021/08/30 04:29:22;;;;;;;20.48;4.90;;;17.40;87.40;;;;;;5040791;28;20182;-61
2021/08/30 04:31:48;;;;;;;15.73;4.28;;;17.40;87.50;;;;;;5062936;28;20047;-62
2021/08/30 04:34:20;;;;;;;13.85;4.07;;;17.40;87.70;;;;;;5046441;28;20029;-61
2021/08/30 04:36:46;;;;;;;19.13;5.05;;;17.40;87.70;;;;;;5061553;28;20028;-62
2021/08/30 04:39:11;;;;;;;15.50;3.90;;;17.40;87.80;;;;;;5073798;28;20051;-61
2021/08/30 04:41:37;;;;;;;14.38;4.50;;;17.40;87.80;;;;;;5049274;28;21071;-61
2021/08/30 04:44:02;;;;;;;25.73;4.65;;;17.40;87.80;;;;;;5035977;28;20075;-61
2021/08/30 04:46:28;;;;;;;30.77;5.25;;;17.40;88.00;;;;;;5045716;28;20128;-61
2021/08/30 04:48:54;;;;;;;16.67;4.63;;;17.40;88.10;;;;;;5047242;28;20449;-61
2021/08/30 04:51:19;;;;;;;14.23;4.40;;;17.40;87.90;;;;;;5045176;28;20032;-62
2021/08/30 04:53:45;;;;;;;23.92;5.10;;;17.40;88.00;;;;;;5074638;28;20039;-62
2021/08/30 04:56:10;;;;;;;19.60;4.07;;;17.40;88.00;;;;;;5066231;28;20047;-62
2021/08/30 04:58:36;;;;;;;14.10;4.32;;;17.40;88.10;;;;;;5076496;28;20094;-62
2021/08/30 05:01:01;;;;;;;24.52;4.95;;;17.40;88.10;;;;;;5058608;28;20079;-62
2021/08/30 05:03:27;;;;;;;28.70;5.07;;;17.40;88.20;;;;;;5025199;28;20040;-62
2021/08/30 05:05:52;;;;;;;29.17;4.78;;;17.30;88.20;;;;;;5043803;28;20115;-61
2021/08/30 05:08:19;;;;;;;28.88;4.80;;;17.40;88.30;;;;;;5054639;28;20024;-62
2021/08/30 05:10:44;;;;;;;28.15;5.05;;;17.40;88.20;;;;;;5042921;28;20740;-62
2021/08/30 05:13:10;;;;;;;31.23;5.45;;;17.40;88.40;;;;;;5034946;28;20154;-61
2021/08/30 05:15:35;;;;;;;30.05;5.13;;;17.40;88.60;;;;;;5069402;28;20091;-62
2021/08/30 05:18:01;;;;;;;31.15;4.85;;;17.40;88.70;;;;;;5051322;28;20052;-62
2021/08/30 05:20:26;;;;;;;23.80;4.65;;;17.30;88.60;;;;;;5046210;28;20375;-61
2021/08/30 05:22:52;;;;;;;22.67;4.85;;;17.40;88.70;;;;;;5045713;28;20166;-62
2021/08/30 05:25:17;;;;;;;23.92;4.53;;;17.30;88.60;;;;;;5043854;28;20089;-62
2021/08/30 05:27:44;;;;;;;26.10;4.80;;;17.30;88.80;;;;;;5074898;28;20027;-62
2021/08/30 05:30:10;;;;;;;20.95;4.10;;;17.30;88.90;;;;;;5070591;28;20024;-62
2021/08/30 05:32:36;;;;;;;23.75;3.63;;;17.30;88.80;;;;;;5052601;28;20459;-62
2021/08/30 05:35:01;;;;;;;16.90;3.70;;;17.30;88.80;;;;;;5074957;28;20028;-62
2021/08/30 05:37:27;;;;;;;14.88;3.95;;;17.30;88.80;;;;;;5039427;28;20028;-62
2021/08/30 05:39:52;;;;;;;26.38;4.35;;;17.40;88.90;;;;;;5064132;28;20140;-62
2021/08/30 05:42:18;;;;;;;11.32;4.07;;;17.30;88.70;;;;;;5065664;28;20054;-62
2021/08/30 05:44:43;;;;;;;15.10;4.07;;;17.30;88.70;;;;;;5070044;28;20568;-61
2021/08/30 05:47:09;;;;;;;13.00;3.50;;;17.30;88.70;;;;;;5043692;28;20090;-62
2021/08/30 05:49:34;;;;;;;11.32;3.72;;;17.30;88.70;;;;;;5045853;28;20028;-61
2021/08/30 05:52:00;;;;;;;14.32;3.70;;;17.30;88.70;;;;;;5065003;28;20090;-62
2021/08/30 05:54:25;;;;;;;13.50;4.15;;;17.30;88.60;;;;;;5065763;28;20129;-62
2021/08/30 05:56:51;;;;;;;14.02;4.03;;;17.30;88.60;;;;;;5043924;28;20032;-61
2021/08/30 05:59:16;;;;;;;9.07;3.38;;;17.30;88.60;;;;;;5060707;28;20042;-62
2021/08/30 06:01:42;;;;;;;11.60;3.60;;;17.30;88.60;;;;;;5045437;28;20033;-62
2021/08/30 06:04:07;;;;;;;11.48;3.85;;;17.30;88.60;;;;;;5028631;28;20106;-62
2021/08/30 06:06:33;;;;;;;9.63;3.40;;;17.40;88.50;;;;;;5040395;28;20542;-62
2021/08/30 06:08:58;;;;;;;8.90;3.08;;;17.40;88.50;;;;;;5062412;28;20423;-62
2021/08/30 06:11:24;;;;;;;9.82;3.65;;;17.30;88.50;;;;;;5052310;28;20049;-62
2021/08/30 06:13:50;;;;;;;11.00;3.65;;;17.40;88.50;;;;;;5060144;28;20056;-62
2021/08/30 06:16:15;;;;;;;9.07;3.47;;;17.40;88.50;;;;;;5049169;28;20169;-61
2021/08/30 06:18:41;;;;;;;13.30;3.58;;;17.40;88.30;;;;;;5064609;28;20154;-62
2021/08/30 06:21:06;;;;;;;6.50;3.38;;;17.40;88.30;;;;;;5030774;28;20086;-62
2021/08/30 06:23:32;;;;;;;12.02;4.03;;;17.40;88.20;;;;;;5047861;28;20095;-61
2021/08/30 06:25:59;;;;;;;8.55;3.25;;;17.40;88.20;;;;;;5049899;28;20030;-61
2021/08/30 06:28:25;;;;;;;8.65;3.20;;;17.50;88.30;;;;;;5065632;28;20033;-61
2021/08/30 06:30:51;;;;;;;18.95;3.67;;;17.50;88.30;;;;;;5048438;28;20103;-62
2021/08/30 06:33:17;;;;;;;8.05;3.15;;;17.50;88.30;;;;;;5043615;28;20029;-62
2021/08/30 06:35:43;;;;;;;8.45;2.90;;;17.50;88.20;;;;;;5043748;28;20464;-61
2021/08/30 06:38:12;;;;;;;11.43;3.10;;;17.50;88.10;;;;;;5063505;28;20538;-62
2021/08/30 06:40:37;;;;;;;8.93;3.28;;;17.50;88.10;;;;;;5034231;28;20021;-61
2021/08/30 06:43:03;;;;;;;10.00;4.22;;;17.50;88.00;;;;;;5046116;28;20027;-62
2021/08/30 06:45:28;;;;;;;7.70;3.08;;;17.60;88.10;;;;;;5029782;28;20106;-62
2021/08/30 06:47:54;;;;;;;9.98;3.45;;;17.50;88.00;;;;;;5059895;28;20036;-62
2021/08/30 06:50:20;;;;;;;8.82;3.30;;;17.60;88.00;;;;;;5045308;28;20048;-62
2021/08/30 06:52:45;;;;;;;9.98;2.83;;;17.60;88.00;;;;;;5045211;28;20048;-61
2021/08/30 06:55:11;;;;;;;14.50;3.60;;;17.50;88.00;;;;;;5049138;28;20124;-62
2021/08/30 06:57:36;;;;;;;7.65;2.95;;;17.60;87.90;;;;;;5048542;28;20033;-62
2021/08/30 07:00:06;;;;;;;10.02;3.28;;;17.60;87.80;;;;;;5045277;28;20486;-62
2021/08/30 07:02:31;;;;;;;14.35;2.92;;;17.60;87.80;;;;;;5043102;28;21580;-61
2021/08/30 07:04:57;;;;;;;8.48;3.00;;;17.60;87.80;;;;;;5031682;28;20102;-62
2021/08/30 07:07:22;;;;;;;10.23;3.35;;;17.60;87.90;;;;;;5061806;28;20041;-62
2021/08/30 07:09:48;;;;;;;12.93;3.17;;;17.60;88.10;;;;;;5059055;28;20033;-62
2021/08/30 07:12:13;;;;;;;8.70;3.67;;;17.60;88.20;;;;;;5057093;28;20583;-62
2021/08/30 07:14:39;;;;;;;16.13;3.55;;;17.60;88.30;;;;;;5037923;28;20757;-62
2021/08/30 07:17:04;;;;;;;10.52;3.28;;;17.60;88.40;;;;;;5059718;28;20039;-62
2021/08/30 07:19:30;;;;;;;10.93;3.50;;;17.70;88.50;;;;;;5063297;28;20452;-62
2021/08/30 07:21:55;;;;;;;13.65;3.50;;;17.60;88.50;;;;;;5040803;28;20782;-62
2021/08/30 07:24:21;;;;;;;8.45;3.22;;;17.60;88.60;;;;;;5058163;28;20461;-62
2021/08/30 07:26:47;;;;;;;10.20;3.30;;;17.60;88.70;;;;;;5058504;28;20040;-61
2021/08/30 07:29:12;;;;;;;10.00;2.90;;;17.60;88.90;;;;;;5050625;28;20131;-61
2021/08/30 07:31:38;;;;;;;14.57;3.65;;;17.60;88.90;;;;;;5037744;28;20656;-62
2021/08/30 07:34:04;;;;;;;13.82;3.80;;;17.60;88.90;;;;;;5025393;28;20038;-62
2021/08/30 07:36:30;;;;;;;17.75;4.40;;;17.60;88.80;;;;;;5044365;28;20111;-62
2021/08/30 07:38:59;;;;;;;8.75;3.83;;;17.60;88.90;;;;;;5044639;28;20048;-62
2021/08/30 07:41:25;;;;;;;10.60;4.07;;;17.60;88.90;;;;;;5025826;28;20554;-61
2021/08/30 07:43:50;;;;;;;13.45;3.80;;;17.60;88.90;;;;;;5033863;28;20121;-61
2021/08/30 07:46:20;;;;;;;19.15;4.18;;;17.60;88.80;;;;;;5057353;28;20090;-61
2021/08/30 07:48:45;;;;;;;10.13;3.58;;;17.70;88.80;;;;;;5042466;28;20036;-61
2021/08/30 07:51:11;;;;;;;14.05;4.10;;;17.70;88.80;;;;;;5023977;28;20036;-61
2021/08/30 07:53:36;;;;;;;13.52;3.90;;;17.50;88.60;;;;;;5056328;28;20048;-62
2021/08/30 07:56:02;;;;;;;6.32;3.58;;;17.70;88.80;;;;;;5038915;28;20607;-62
2021/08/30 07:58:28;;;;;;;8.35;3.83;;;17.70;88.60;;;;;;5055100;28;20033;-62
2021/08/30 08:00:53;;;;;;;11.30;4.32;;;17.80;88.60;;;;;;5041273;28;20493;-61
2021/08/30 08:03:19;;;;;;;18.45;4.90;;;17.80;88.70;;;;;;5037134;28;20176;-61
2021/08/30 08:05:44;;;;;;;18.50;4.68;;;17.80;88.70;;;;;;5042694;28;20063;-62
2021/08/30 08:08:10;;;;;;;13.82;3.72;;;17.80;88.70;;;;;;5037464;28;20044;-62
2021/08/30 08:10:35;;;;;;;21.70;4.30;;;17.90;88.60;;;;;;5061027;28;20661;-62
2021/08/30 08:13:01;;;;;;;27.40;4.28;;;17.90;88.50;;;;;;5055457;28;20064;-62
2021/08/30 08:15:26;;;;;;;19.95;4.43;;;17.90;88.50;;;;;;5038280;28;20033;-62
2021/08/30 08:17:52;;;;;;;17.10;3.70;;;17.90;88.50;;;;;;5044721;28;20507;-62
2021/08/30 08:20:17;;;;;;;18.30;4.30;;;18.00;88.40;;;;;;5065010;28;20024;-62
2021/08/30 08:22:43;;;;;;;23.05;4.88;;;18.00;88.40;;;;;;5051985;28;20048;-61
2021/08/30 08:25:09;;;;;;;22.00;4.78;;;18.00;88.50;;;;;;5040955;28;20035;-62
2021/08/30 08:27:36;;;;;;;19.90;4.10;;;18.10;88.40;;;;;;5038752;28;20094;-62
2021/08/30 08:30:02;;;;;;;25.10;5.35;;;18.10;88.30;;;;;;5027873;28;20136;-62
2021/08/30 08:32:27;;;;;;;31.67;4.85;;;18.10;88.20;;;;;;5009163;28;20104;-62
2021/08/30 08:34:53;;;;;;;34.65;5.40;;;18.10;88.00;;;;;;5050752;28;20041;-61
2021/08/30 08:37:18;;;;;;;34.90;5.15;;;18.20;87.90;;;;;;5054678;28;20025;-64
2021/08/30 08:39:44;;;;;;;37.20;5.53;;;18.20;87.90;;;;;;5025167;28;20048;-62
2021/08/30 08:42:09;;;;;;;33.38;5.18;;;18.20;87.80;;;;;;5027251;28;20803;-62
2021/08/30 08:44:36;;;;;;;44.97;5.40;;;18.30;88.10;;;;;;5030898;28;20425;-62
2021/08/30 08:47:01;;;;;;;57.38;6.63;;;18.30;87.80;;;;;;5050536;28;20040;-62
2021/08/30 08:49:27;;;;;;;32.95;5.95;;;18.40;87.80;;;;;;5020798;28;20041;-62
2021/08/30 08:51:52;;;;;;;42.63;5.15;;;18.40;87.90;;;;;;5038501;28;20067;-61
2021/08/30 08:54:18;;;;;;;66.40;6.40;;;18.40;87.90;;;;;;5029948;28;20066;-61
2021/08/30 08:56:44;;;;;;;46.75;7.00;;;18.40;87.60;;;;;;5039854;28;20432;-61
2021/08/30 08:59:09;;;;;;;66.82;7.00;;;18.40;87.30;;;;;;5059601;28;20102;-61
2021/08/30 09:01:36;;;;;;;135.98;12.98;;;18.40;87.30;;;;;;5055886;28;20499;-61
2021/08/30 09:04:02;;;;;;;53.83;7.35;;;18.50;87.40;;;;;;5041206;28;20817;-62
2021/08/30 09:06:40;;;;;;;97.80;8.65;;;18.50;87.20;;;;;;5041233;28;20036;-62
2021/08/30 09:09:17;;;;;;;45.08;6.72;;;18.50;87.20;;;;;;5028853;28;20086;-62
2021/08/30 09:11:56;;;;;;;65.85;7.57;;;18.50;87.20;;;;;;5063401;28;20031;-61
2021/08/30 09:14:23;;;;;;;59.85;7.95;;;18.50;87.40;;;;;;5027895;28;20029;-60
2021/08/30 09:17:00;;;;;;;39.67;5.90;;;18.60;87.30;;;;;;5022915;28;20032;-60
2021/08/30 09:19:25;;;;;;;69.53;7.03;;;18.60;87.10;;;;;;5038839;28;20064;-60
2021/08/30 09:21:51;;;;;;;95.40;10.25;;;18.60;87.60;;;;;;5009813;28;20186;-60
2021/08/30 09:24:18;;;;;;;57.00;6.93;;;18.60;87.30;;;;;;5057834;28;20039;-60
2021/08/30 09:26:57;;;;;;;54.70;6.80;;;18.70;87.50;;;;;;5059237;28;20055;-61
2021/08/30 09:29:26;;;;;;;62.28;7.10;;;18.60;87.90;;;;;;5009014;28;20512;-60
2021/08/30 09:32:19;;;;;;;34.85;5.45;;;18.60;89.00;;;;;;5035057;28;20110;-60
2021/08/30 09:34:49;;;;;;;52.03;5.93;;;18.60;88.40;;;;;;5052955;28;20041;-60
2021/08/30 09:37:18;;;;;;;47.63;6.28;;;18.60;89.20;;;;;;5039622;28;20556;-60
2021/08/30 09:39:48;;;;;;;82.38;8.20;;;18.60;89.50;;;;;;5038755;28;20044;-60
2021/08/30 09:42:13;;;;;;;72.10;7.40;;;18.60;90.00;;;;;;5005826;28;20032;-60
2021/08/30 09:44:39;;;;;;;47.03;5.60;;;18.60;90.10;;;;;;5029581;28;20059;-62
2021/08/30 09:47:12;;;;;;;52.70;5.97;;;18.50;90.00;;;;;;5024891;28;20037;-60
2021/08/30 09:49:38;;;;;;;61.60;7.38;;;18.50;90.20;;;;;;5011315;28;20056;-60
2021/08/30 09:52:04;;;;;;;64.35;7.40;;;18.50;90.10;;;;;;5027413;28;20029;-61
2021/08/30 09:54:29;;;;;;;46.20;6.28;;;18.50;90.10;;;;;;5042803;28;20556;-62
2021/08/30 09:56:55;;;;;;;46.78;6.65;;;18.50;90.20;;;;;;5053629;28;20028;-60
2021/08/30 09:59:21;;;;;;;56.05;6.88;;;18.50;90.30;;;;;;5036658;28;20488;-64
2021/08/30 10:01:47;;;;;;;54.13;7.07;;;18.50;90.40;;;;;;5041135;28;20060;-61
2021/08/30 10:04:15;;;;;;;47.10;6.35;;;18.50;90.40;;;;;;5027392;28;20089;-61
2021/08/30 10:06:40;;;;;;;61.20;7.75;;;18.50;90.40;;;;;;5039649;28;20044;-60
2021/08/30 10:09:12;;;;;;;64.15;9.05;;;18.50;90.50;;;;;;5056737;28;20037;-60
2021/08/30 10:11:38;;;;;;;51.53;6.57;;;18.50;90.60;;;;;;5026813;28;21353;-60
2021/08/30 10:14:07;;;;;;;65.57;8.70;;;18.50;90.40;;;;;;5057097;28;20107;-60
2021/08/30 10:16:33;;;;;;;78.28;9.13;;;18.60;90.40;;;;;;5010757;28;20142;-62
2021/08/30 10:18:59;;;;;;;51.28;6.72;;;18.60;90.40;;;;;;5039583;28;20387;-60
2021/08/30 10:21:25;;;;;;;57.80;8.38;;;18.60;90.30;;;;;;5051540;28;20036;-60
2021/08/30 10:23:51;;;;;;;58.35;6.95;;;18.60;90.20;;;;;;5024854;28;20045;-60
2021/08/30 10:26:18;;;;;;;77.03;8.77;;;18.60;90.20;;;;;;5021529;28;20041;-60
2021/08/30 10:28:46;;;;;;;61.10;8.82;;;18.70;90.10;;;;;;5017586;28;20032;-61
2021/08/30 10:31:23;;;;;;;77.53;10.15;;;18.70;90.10;;;;;;5041748;28;20078;-60
2021/08/30 10:33:53;;;;;;;74.53;9.32;;;18.70;90.20;;;;;;5036076;28;20183;-60
2021/08/30 10:36:21;;;;;;;86.13;9.65;;;18.80;90.30;;;;;;5040898;28;20098;-61
2021/08/30 10:38:57;;;;;;;117.30;11.48;;;18.80;90.40;;;;;;5021864;28;20033;-60
2021/08/30 10:41:28;;;;;;;99.90;10.60;;;18.80;90.30;;;;;;5033961;28;20025;-60
2021/08/30 10:44:06;;;;;;;87.05;11.07;;;18.90;90.20;;;;;;5037713;28;20051;-61
2021/08/30 10:47:00;;;;;;;81.35;9.43;;;18.90;90.10;;;;;;5054564;28;20156;-60
2021/08/30 10:49:33;;;;;;;102.63;11.30;;;18.90;90.00;;;;;;5047371;28;20040;-60
2021/08/30 10:52:08;;;;;;;121.30;12.57;;;19.00;90.10;;;;;;5038195;28;20036;-60
2021/08/30 10:54:33;;;;;;;148.63;15.30;;;19.00;90.10;;;;;;5062187;28;20048;-59
2021/08/30 10:57:00;;;;;;;114.72;11.40;;;19.00;90.00;;;;;;5059787;28;20456;-61
2021/08/30 10:59:28;;;;;;;90.40;10.68;;;19.00;90.00;;;;;;5038058;28;20052;-60
2021/08/30 11:02:03;;;;;;;79.15;10.13;;;19.10;89.80;;;;;;5029642;28;20982;-60
2021/08/30 11:04:33;;;;;;;113.63;10.15;;;19.10;89.70;;;;;;5036280;28;20048;-60
2021/08/30 11:06:59;;;;;;;99.03;10.75;;;19.10;89.80;;;;;;5024298;28;20052;-59
2021/08/30 11:09:25;;;;;;;69.85;9.35;;;19.10;89.40;;;;;;5059625;28;20056;-60
2021/08/30 11:11:51;;;;;;;95.00;11.30;;;19.20;89.20;;;;;;5023929;28;20514;-60
2021/08/30 11:14:17;;;;;;;58.80;6.93;;;19.20;89.20;;;;;;5039473;28;20138;-60
2021/08/30 11:16:42;;;;;;;78.38;9.15;;;19.20;88.80;;;;;;5008553;28;20460;-60
2021/08/30 11:19:10;;;;;;;74.03;9.20;;;19.30;88.70;;;;;;5045189;28;20044;-60
2021/08/30 11:21:54;;;;;;;73.75;9.52;;;19.30;88.20;;;;;;5036232;28;20036;-60
2021/08/30 11:24:37;;;;;;;71.63;8.02;;;19.40;88.10;;;;;;5026456;28;20021;-60
2021/08/30 11:27:12;;;;;;;58.03;7.97;;;19.40;87.70;;;;;;5044925;28;20094;-60
2021/08/30 11:29:54;;;;;;;57.50;6.90;;;19.40;87.40;;;;;;5040167;28;20153;-61
2021/08/30 11:32:21;;;;;;;63.42;8.77;;;19.50;87.00;;;;;;5043974;28;20051;-60
2021/08/30 11:34:46;;;;;;;75.18;10.07;;;19.60;86.80;;;;;;5063308;28;20030;-60
2021/08/30 11:37:15;;;;;;;106.95;11.68;;;19.60;86.10;;;;;;5063245;28;20039;-60
2021/08/30 11:39:41;;;;;;;106.38;9.85;;;19.70;85.90;;;;;;5036373;28;20058;-60
2021/08/30 11:42:11;;;;;;;85.43;8.82;;;19.80;85.90;;;;;;5018856;28;21539;-60
2021/08/30 11:44:38;;;;;;;70.63;8.63;;;19.80;85.70;;;;;;5040576;28;20488;-60
2021/08/30 11:47:05;;;;;;;120.65;12.13;;;19.90;85.50;;;;;;5061965;28;20028;-60
2021/08/30 11:49:32;;;;;;;93.43;9.75;;;19.90;85.10;;;;;;5037181;28;20396;-60
2021/08/30 11:51:59;;;;;;;85.55;8.85;;;20.00;85.00;;;;;;5033221;28;20044;-60
2021/08/30 11:54:29;;;;;;;103.00;12.15;;;20.00;84.80;;;;;;5057715;28;20020;-60
2021/08/30 11:56:56;;;;;;;76.05;8.95;;;20.00;84.40;;;;;;5042012;28;20235;-60
2021/08/30 11:59:29;;;;;;;100.88;11.15;;;20.10;84.50;;;;;;5038861;28;20480;-60
2021/08/30 12:01:55;;;;;;;92.03;9.93;;;20.10;84.00;;;;;;5040179;28;20453;-60
2021/08/30 12:04:21;;;;;;;87.25;11.45;;;20.10;83.70;;;;;;5037579;28;20266;-60
2021/08/30 12:06:52;;;;;;;103.43;11.68;;;20.20;83.30;;;;;;5039371;28;20033;-60
2021/08/30 12:09:17;;;;;;;90.82;9.10;;;20.20;83.10;;;;;;5057825;28;20482;-60
2021/08/30 12:12:01;;;;;;;68.93;8.27;;;20.30;82.70;;;;;;5059987;28;20024;-60
2021/08/30 12:14:26;;;;;;;77.70;8.60;;;20.40;82.30;;;;;;5034398;28;20051;-60
2021/08/30 12:16:57;;;;;;;78.40;9.30;;;20.40;82.00;;;;;;5035075;28;20134;-62
2021/08/30 12:19:24;;;;;;;67.75;7.95;;;20.50;81.60;;;;;;5036380;28;20037;-60
2021/08/30 12:21:50;;;;;;;61.78;8.13;;;20.60;81.20;;;;;;5057744;28;20032;-60
2021/08/30 12:24:19;;;;;;;73.00;6.97;;;20.70;81.40;;;;;;5042624;28;20030;-60
2021/08/30 12:26:47;;;;;;;78.18;9.82;;;20.80;80.10;;;;;;5026608;28;20566;-60
2021/08/30 12:29:12;;;;;;;58.97;7.90;;;20.90;80.20;;;;;;5057617;28;20071;-60
2021/08/30 12:31:38;;;;;;;62.40;8.25;;;21.00;80.70;;;;;;5060743;28;20068;-60
2021/08/30 12:34:10;;;;;;;52.85;6.07;;;21.00;79.30;;;;;;5037388;28;20174;-60
2021/08/30 12:36:36;;;;;;;54.63;6.15;;;21.10;78.90;;;;;;5039027;28;20020;-60
2021/08/30 12:39:02;;;;;;;66.07;7.82;;;21.10;79.50;;;;;;5040475;28;20393;-60
2021/08/30 12:41:28;;;;;;;69.07;6.97;;;21.20;79.40;;;;;;5042729;28;20124;-59